createdAt,value
2022-08-16T00:00:56.772Z,8.85
2022-08-16T00:03:23.773Z,9.02
2022-08-16T00:05:57.571Z,8.63
2022-08-16T00:08:36.302Z,9.02
2022-08-16T00:11:06.400Z,8.32
2022-08-16T00:13:41.622Z,9.13
2022-08-16T00:17:01.099Z,9.82
2022-08-16T00:18:55.997Z,9.60
2022-08-16T00:21:23.043Z,9.23
2022-08-16T00:23:49.528Z,8.75
2022-08-16T00:26:36.291Z,8.95
2022-08-16T00:29:02.425Z,8.68
2022-08-16T00:31:58.781Z,9.30
2022-08-16T00:34:21.084Z,8.60
2022-08-16T00:36:48.046Z,9.23
2022-08-16T00:39:16.557Z,9.45
2022-08-16T00:41:46.673Z,8.73
2022-08-16T00:44:14.487Z,9.30
2022-08-16T00:46:52.886Z,9.20
2022-08-16T00:49:29.103Z,9.10
2022-08-16T00:52:06.297Z,9.88
2022-08-16T00:54:52.789Z,9.27
2022-08-16T00:57:20.212Z,9.73
2022-08-16T00:59:58.721Z,10.05
2022-08-16T01:02:31.783Z,9.25
2022-08-16T01:05:09.730Z,9.95
2022-08-16T01:07:51.751Z,9.82
2022-08-16T01:10:32.330Z,9.60
2022-08-16T01:13:12.114Z,9.73
2022-08-16T01:15:46.384Z,9.68
2022-08-16T01:18:39.104Z,9.95
2022-08-16T01:21:33.576Z,9.25
2022-08-16T01:24:53.678Z,9.63
2022-08-16T01:27:09.533Z,9.52
2022-08-16T01:29:58.568Z,10.18
2022-08-16T01:32:31.937Z,10.55
2022-08-16T01:35:02.395Z,9.75
2022-08-16T01:37:35.677Z,9.73
2022-08-16T01:40:07.187Z,10.32
2022-08-16T01:42:34.253Z,10.10
2022-08-16T01:45:00.792Z,10.60
2022-08-16T01:47:29.478Z,9.75
2022-08-16T01:50:42.508Z,9.20
2022-08-16T01:52:46.787Z,9.73
2022-08-16T01:55:14.458Z,10.40
2022-08-16T01:57:53.521Z,9.55
2022-08-16T02:00:29.280Z,10.30
2022-08-16T02:02:56.859Z,10.03
2022-08-16T02:05:23.453Z,9.57
2022-08-16T02:07:52.042Z,10.05
2022-08-16T02:10:19.323Z,10.75
2022-08-16T02:12:51.297Z,10.02
2022-08-16T02:15:28.408Z,10.03
2022-08-16T02:17:57.649Z,10.25
2022-08-16T02:20:28.050Z,9.68
2022-08-16T02:22:59.651Z,10.68
2022-08-16T02:25:52.062Z,10.70
2022-08-16T02:28:17.244Z,9.90
2022-08-16T02:30:50.639Z,10.80
2022-08-16T02:33:17.587Z,11.25
2022-08-16T02:35:49.794Z,11.35
2022-08-16T02:38:21.358Z,11.10
2022-08-16T02:40:48.376Z,10.93
2022-08-16T02:43:16.052Z,11.38
2022-08-16T02:45:43.483Z,10.73
2022-08-16T02:48:29.580Z,12.32
2022-08-16T02:51:06.601Z,11.50
2022-08-16T02:53:43.213Z,12.10
2022-08-16T02:56:12.038Z,11.82
2022-08-16T02:58:42.307Z,12.02
2022-08-16T03:01:16.601Z,11.45
2022-08-16T03:04:39.762Z,11.70
2022-08-16T03:06:42.607Z,11.77
2022-08-16T03:09:13.917Z,12.25
2022-08-16T03:11:42.429Z,11.10
2022-08-16T03:14:08.980Z,11.23
2022-08-16T03:16:58.607Z,12.80
2022-08-16T03:19:25.387Z,12.20
2022-08-16T03:21:51.986Z,12.13
2022-08-16T03:24:29.351Z,12.02
2022-08-16T03:27:02.772Z,12.18
2022-08-16T03:29:32.507Z,11.10
2022-08-16T03:32:01.420Z,10.73
2022-08-16T03:34:29.433Z,11.15
2022-08-16T03:36:56.763Z,10.57
2022-08-16T03:39:23.531Z,10.95
2022-08-16T03:41:59.126Z,10.73
2022-08-16T03:44:44.615Z,10.80
2022-08-16T03:47:12.975Z,10.55
2022-08-16T03:49:47.511Z,10.45
2022-08-16T03:52:18.928Z,11.07
2022-08-16T03:54:53.337Z,10.80
2022-08-16T03:57:23.920Z,11.10
2022-08-16T03:59:58.136Z,9.95
2022-08-16T04:02:31.541Z,11.38
2022-08-16T04:04:58.670Z,10.77
2022-08-16T04:07:25.700Z,10.68
2022-08-16T04:09:52.262Z,11.77
2022-08-16T04:12:54.661Z,10.57
2022-08-16T04:15:08.330Z,10.75
2022-08-16T04:17:36.801Z,11.35
2022-08-16T04:20:23.599Z,11.55
2022-08-16T04:22:54.869Z,11.70
2022-08-16T04:25:22.723Z,11.27
2022-08-16T04:27:56.070Z,12.15
2022-08-16T04:30:32.178Z,11.27
2022-08-16T04:33:02.092Z,11.80
2022-08-16T04:35:34.287Z,11.03
2022-08-16T04:38:11.030Z,11.50
2022-08-16T04:40:50.104Z,12.20
2022-08-16T04:43:17.454Z,11.93
2022-08-16T04:45:44.554Z,10.90
2022-08-16T04:48:11.043Z,12.27
2022-08-16T04:50:49.260Z,11.38
2022-08-16T04:53:16.945Z,12.32
2022-08-16T04:55:45.808Z,11.48
2022-08-16T04:58:44.058Z,12.52
2022-08-16T05:00:58.754Z,11.77
2022-08-16T05:03:26.050Z,12.00
2022-08-16T05:05:59.086Z,11.73
2022-08-16T05:08:31.086Z,11.93
2022-08-16T05:11:05.283Z,11.70
2022-08-16T05:13:40.692Z,11.97
2022-08-16T05:16:12.015Z,11.75
2022-08-16T05:18:46.881Z,11.57
2022-08-16T05:21:13.609Z,11.67
2022-08-16T05:23:40.109Z,12.10
2022-08-16T05:26:06.626Z,12.10
2022-08-16T05:28:47.061Z,12.13
2022-08-16T05:31:21.870Z,12.45
2022-08-16T05:33:53.566Z,12.70
2022-08-16T05:36:21.652Z,11.82
2022-08-16T05:38:48.927Z,12.77
2022-08-16T05:41:16.852Z,12.77
2022-08-16T05:43:46.962Z,12.95
2022-08-16T05:46:30.423Z,11.60
2022-08-16T05:49:04.056Z,12.60
2022-08-16T05:51:38.527Z,12.60
2022-08-16T05:54:07.917Z,13.02
2022-08-16T05:56:37.392Z,12.82
2022-08-16T05:59:06.199Z,13.23
2022-08-16T06:01:38.347Z,12.40
2022-08-16T06:04:13.633Z,12.95
2022-08-16T06:06:57.453Z,13.27
2022-08-16T06:09:37.183Z,12.93
2022-08-16T06:12:27.446Z,12.63
2022-08-16T06:14:59.112Z,13.13
2022-08-16T06:17:42.403Z,13.85
2022-08-16T06:20:18.402Z,14.05
2022-08-16T06:23:03.262Z,13.65
2022-08-16T06:25:36.200Z,14.50
2022-08-16T06:28:08.408Z,14.82
2022-08-16T06:30:35.524Z,15.15
2022-08-16T06:33:12.563Z,14.73
2022-08-16T06:35:40.542Z,14.48
2022-08-16T06:38:32.740Z,15.30
2022-08-16T06:40:55.581Z,15.70
2022-08-16T06:43:27.628Z,15.65
2022-08-16T06:45:54.621Z,15.23
2022-08-16T06:48:32.546Z,16.60
2022-08-16T06:51:04.485Z,16.90
2022-08-16T06:53:35.613Z,16.77
2022-08-16T06:56:05.985Z,16.50
2022-08-16T06:58:40.241Z,16.17
2022-08-16T07:01:10.068Z,16.77
2022-08-16T07:03:55.581Z,16.73
2022-08-16T07:06:26.273Z,16.33
2022-08-16T07:08:54.260Z,15.75
2022-08-16T07:11:21.061Z,16.08
2022-08-16T07:14:25.926Z,14.43
2022-08-16T07:16:58.313Z,14.87
2022-08-16T07:20:01.780Z,13.57
2022-08-16T07:22:38.411Z,14.57
2022-08-16T07:25:02.135Z,13.70
2022-08-16T07:27:28.774Z,14.60
2022-08-16T07:30:00.035Z,14.17
2022-08-16T07:32:29.304Z,13.90
2022-08-16T07:34:56.354Z,14.05
2022-08-16T07:37:23.268Z,14.23
2022-08-16T07:39:51.606Z,13.13
2022-08-16T07:42:20.185Z,13.00
2022-08-16T07:44:52.683Z,11.40
2022-08-16T07:47:19.493Z,13.25
2022-08-16T07:49:57.999Z,12.60
2022-08-16T07:52:25.178Z,12.30
2022-08-16T07:54:57.041Z,12.03
2022-08-16T07:57:24.086Z,13.07
2022-08-16T07:59:50.984Z,12.55
2022-08-16T08:02:20.428Z,13.18
2022-08-16T08:04:48.373Z,12.95
2022-08-16T08:07:16.351Z,12.20
2022-08-16T08:09:43.935Z,13.02
2022-08-16T08:12:32.027Z,13.07
2022-08-16T08:14:58.390Z,12.48
2022-08-16T08:17:25.172Z,13.35
2022-08-16T08:20:20.839Z,12.73
2022-08-16T08:23:00.998Z,12.18
2022-08-16T08:25:53.791Z,13.32
2022-08-16T08:28:17.917Z,12.10
2022-08-16T08:30:52.051Z,12.98
2022-08-16T08:33:28.620Z,13.90
2022-08-16T08:35:56.972Z,12.93
2022-08-16T08:38:45.236Z,13.02
2022-08-16T08:41:13.366Z,13.43
2022-08-16T08:43:41.560Z,12.75
2022-08-16T08:46:17.848Z,12.70
2022-08-16T08:48:46.387Z,13.02
2022-08-16T08:51:27.660Z,10.80
2022-08-16T08:53:58.922Z,12.20
2022-08-16T08:56:25.931Z,14.75
2022-08-16T08:58:53.970Z,12.97
2022-08-16T09:01:42.981Z,12.93
2022-08-16T09:04:23.790Z,12.18
2022-08-16T09:06:50.539Z,12.55
2022-08-16T09:09:17.480Z,12.93
2022-08-16T09:11:49.615Z,11.43
2022-08-16T09:14:23.972Z,13.32
2022-08-16T09:17:03.628Z,12.23
2022-08-16T09:19:34.728Z,11.55
2022-08-16T09:22:01.776Z,12.75
2022-08-16T09:24:51.402Z,13.83
2022-08-16T09:27:14.842Z,14.75
2022-08-16T09:29:44.951Z,13.95
2022-08-16T09:32:12.814Z,14.57
2022-08-16T09:34:58.518Z,13.52
2022-08-16T09:37:29.752Z,12.83
2022-08-16T09:39:59.482Z,10.48
2022-08-16T09:42:27.542Z,11.05
2022-08-16T09:45:11.420Z,11.77
2022-08-16T09:47:57.426Z,12.07
2022-08-16T09:50:38.198Z,13.03
2022-08-16T09:53:15.278Z,12.25
2022-08-16T09:55:49.512Z,12.85
2022-08-16T09:58:40.528Z,13.05
2022-08-16T10:01:11.301Z,13.68
2022-08-16T10:04:01.051Z,10.63
2022-08-16T10:06:25.742Z,10.57
2022-08-16T10:09:04.378Z,11.23
2022-08-16T10:11:51.337Z,11.73
2022-08-16T10:14:19.952Z,10.82
2022-08-16T10:16:51.246Z,9.97
2022-08-16T10:19:26.823Z,11.88
2022-08-16T10:21:56.261Z,11.57
2022-08-16T10:24:28.268Z,11.25
2022-08-16T10:27:00.534Z,10.10
2022-08-16T10:30:01.058Z,8.87
2022-08-16T10:32:31.977Z,9.70
2022-08-16T10:34:59.025Z,10.95
2022-08-16T10:37:35.805Z,9.90
2022-08-16T10:40:28.350Z,10.25
2022-08-16T10:42:57.021Z,9.73
2022-08-16T10:45:23.647Z,9.45
2022-08-16T10:48:00.646Z,10.45
2022-08-16T10:50:30.196Z,11.57
2022-08-16T10:52:59.290Z,12.65
2022-08-16T10:55:45.365Z,11.17
2022-08-16T10:58:17.117Z,11.40
2022-08-16T11:00:45.939Z,12.40
2022-08-16T11:06:03.283Z,12.30
2022-08-16T11:08:40.762Z,11.90
2022-08-16T11:11:19.149Z,13.60
2022-08-16T11:14:10.993Z,12.27
2022-08-16T11:19:22.813Z,10.90
2022-08-16T11:24:43.345Z,12.73
2022-08-16T11:27:20.548Z,15.52
2022-08-16T11:29:53.098Z,14.45
2022-08-16T11:32:28.371Z,13.18
2022-08-16T11:35:10.350Z,13.57
2022-08-16T11:40:33.161Z,13.30
2022-08-16T11:43:01.604Z,12.52
2022-08-16T11:45:31.570Z,12.02
2022-08-16T11:48:01.528Z,14.43
2022-08-16T11:50:28.042Z,13.15
2022-08-16T11:52:54.509Z,15.02
2022-08-16T11:55:23.497Z,13.05
2022-08-16T11:57:56.353Z,12.70
2022-08-16T12:00:49.911Z,13.63
2022-08-16T12:03:11.284Z,14.98
2022-08-16T12:05:40.426Z,13.15
2022-08-16T12:08:09.741Z,12.88
2022-08-16T12:10:39.511Z,15.15
2022-08-16T12:13:07.401Z,13.33
2022-08-16T12:15:37.786Z,14.90
2022-08-16T12:18:05.465Z,12.68
2022-08-16T12:20:36.995Z,12.13
2022-08-16T12:23:04.827Z,10.90
2022-08-16T12:25:33.638Z,11.13
2022-08-16T12:28:02.844Z,11.85
2022-08-16T12:30:38.521Z,10.98
2022-08-16T12:33:07.439Z,11.07
2022-08-16T12:35:36.293Z,11.50
2022-08-16T12:38:08.825Z,9.70
2022-08-16T12:40:53.001Z,10.50
2022-08-16T12:43:24.245Z,12.73
2022-08-16T12:45:54.249Z,13.23
2022-08-16T12:48:45.301Z,12.40
2022-08-16T12:51:22.103Z,11.60
2022-08-16T12:53:52.685Z,11.25
2022-08-16T12:56:21.628Z,14.02
2022-08-16T12:58:53.296Z,12.25
2022-08-16T13:01:26.676Z,15.38
2022-08-16T13:04:21.279Z,15.83
2022-08-16T13:06:45.288Z,16.80
2022-08-16T13:09:21.424Z,17.33
2022-08-16T13:12:04.203Z,16.63
2022-08-16T13:14:38.125Z,17.67
2022-08-16T13:17:08.984Z,16.63
2022-08-16T13:20:05.896Z,18.55
2022-08-16T13:22:24.541Z,19.15
2022-08-16T13:24:52.506Z,17.88
2022-08-16T13:27:18.959Z,18.92
2022-08-16T13:29:47.365Z,17.73
2022-08-16T13:32:39.785Z,19.00
2022-08-16T13:35:08.168Z,17.50
2022-08-16T13:37:39.701Z,18.60
2022-08-16T13:40:09.285Z,17.27
2022-08-16T13:42:47.457Z,15.33
2022-08-16T13:45:15.715Z,15.38
2022-08-16T13:47:42.568Z,13.25
2022-08-16T13:50:10.855Z,12.77
2022-08-16T13:52:39.997Z,13.93
2022-08-16T13:55:17.794Z,14.13
2022-08-16T13:58:29.965Z,15.20
2022-08-16T14:00:31.257Z,12.20
2022-08-16T14:02:59.227Z,10.13
2022-08-16T14:05:27.279Z,10.50
2022-08-16T14:07:53.957Z,11.37
2022-08-16T14:10:21.219Z,9.90
2022-08-16T14:12:47.941Z,9.75
2022-08-16T14:15:15.985Z,9.05
2022-08-16T14:18:17.288Z,8.82
2022-08-16T14:20:29.767Z,9.47
2022-08-16T14:22:56.922Z,8.50
2022-08-16T14:25:24.394Z,7.63
2022-08-16T14:27:54.365Z,7.95
2022-08-16T14:30:22.656Z,9.10
2022-08-16T14:32:51.403Z,8.83
2022-08-16T14:35:29.301Z,9.80
2022-08-16T14:38:04.437Z,9.90
2022-08-16T14:40:31.643Z,12.27
2022-08-16T14:42:58.174Z,10.30
2022-08-16T14:45:33.368Z,10.57
2022-08-16T14:48:00.075Z,11.88
2022-08-16T14:50:27.991Z,11.93
2022-08-16T14:53:01.910Z,10.13
2022-08-16T14:55:31.990Z,10.20
2022-08-16T14:57:59.421Z,10.00
2022-08-16T15:00:33.860Z,10.77
2022-08-16T15:03:06.229Z,13.38
2022-08-16T15:05:33.157Z,11.05
2022-08-16T15:08:00.228Z,11.70
2022-08-16T15:10:29.402Z,10.80
2022-08-16T15:12:58.935Z,10.80
2022-08-16T15:15:28.289Z,10.98
2022-08-16T15:17:56.484Z,13.02
2022-08-16T15:20:26.316Z,12.95
2022-08-16T15:22:53.737Z,10.23
2022-08-16T15:25:29.134Z,12.50
2022-08-16T15:27:56.793Z,11.88
2022-08-16T15:30:56.453Z,11.90
2022-08-16T15:33:16.648Z,14.35
2022-08-16T15:35:44.114Z,12.03
2022-08-16T15:38:57.188Z,12.10
2022-08-16T15:40:59.403Z,11.60
2022-08-16T15:43:33.683Z,12.55
2022-08-16T15:46:35.521Z,13.45
2022-08-16T15:49:13.322Z,12.80
2022-08-16T15:51:44.698Z,11.75
2022-08-16T15:54:20.825Z,9.85
2022-08-16T15:57:02.736Z,10.98
2022-08-16T15:59:48.076Z,10.55
2022-08-16T16:02:27.610Z,10.47
2022-08-16T16:04:55.805Z,10.85
2022-08-16T16:07:22.570Z,15.10
2022-08-16T16:09:49.074Z,14.88
2022-08-16T16:12:51.751Z,14.05
2022-08-16T16:15:06.492Z,16.50
2022-08-16T16:17:33.945Z,15.20
2022-08-16T16:20:03.934Z,16.08
2022-08-16T16:22:31.709Z,14.82
2022-08-16T16:24:58.203Z,14.38
2022-08-16T16:27:25.322Z,14.40
2022-08-16T16:29:57.981Z,13.80
2022-08-16T16:32:34.245Z,14.50
2022-08-16T16:35:02.434Z,16.50
2022-08-16T16:37:31.087Z,13.98
2022-08-16T16:39:58.718Z,14.10
2022-08-16T16:42:30.031Z,15.98
2022-08-16T16:45:01.225Z,16.13
2022-08-16T16:47:29.549Z,13.68
2022-08-16T16:49:56.166Z,13.75
2022-08-16T16:52:31.227Z,14.77
2022-08-16T16:55:13.017Z,14.90
2022-08-16T16:57:59.902Z,15.75
2022-08-16T17:00:37.689Z,13.13
2022-08-16T17:03:05.786Z,14.20
2022-08-16T17:05:32.707Z,13.27
2022-08-16T17:08:00.283Z,14.32
2022-08-16T17:10:45.484Z,15.18
2022-08-16T17:13:13.904Z,14.32
2022-08-16T17:15:41.784Z,15.20
2022-08-16T17:19:15.751Z,15.10
2022-08-16T17:20:54.785Z,15.70
2022-08-16T17:23:21.292Z,14.55
2022-08-16T17:26:10.398Z,13.63
2022-08-16T17:31:23.841Z,13.00
2022-08-16T17:34:29.298Z,13.85
2022-08-16T17:36:54.505Z,13.32
2022-08-16T17:39:21.172Z,12.65
2022-08-16T17:39:26.848Z,13.90
2022-08-16T17:41:50.253Z,14.07
2022-08-16T17:44:19.194Z,16.13
2022-08-16T17:46:52.422Z,13.18
2022-08-16T17:49:19.751Z,13.43
2022-08-16T17:51:46.218Z,13.40
2022-08-16T17:54:18.810Z,14.82
2022-08-16T17:57:01.272Z,13.40
2022-08-16T17:59:28.730Z,13.15
2022-08-16T18:01:55.948Z,13.13
2022-08-16T18:04:49.787Z,13.93
2022-08-16T18:07:10.036Z,14.50
2022-08-16T18:09:40.656Z,14.17
2022-08-16T18:12:51.270Z,13.55
2022-08-16T18:15:14.423Z,15.15
2022-08-16T18:17:41.927Z,14.65
2022-08-16T18:20:28.920Z,14.43
2022-08-16T18:23:03.106Z,17.13
2022-08-16T18:25:29.654Z,15.23
2022-08-16T18:27:56.110Z,14.32
2022-08-16T18:30:22.649Z,13.82
2022-08-16T18:32:50.105Z,15.30
2022-08-16T18:35:20.777Z,14.47
2022-08-16T18:37:47.650Z,14.57
2022-08-16T18:40:18.376Z,15.25
2022-08-16T18:43:06.361Z,14.15
2022-08-16T18:45:36.710Z,13.57
2022-08-16T18:48:05.615Z,15.03
2022-08-16T18:51:04.372Z,13.77
2022-08-16T18:53:20.770Z,14.23
2022-08-16T18:55:48.607Z,14.63
2022-08-16T18:58:16.009Z,14.73
2022-08-16T19:00:55.826Z,13.80
2022-08-16T19:03:30.033Z,14.32
2022-08-16T19:05:59.871Z,14.90
2022-08-16T19:08:26.736Z,15.68
2022-08-16T19:10:53.342Z,16.80
2022-08-16T19:13:23.952Z,16.00
2022-08-16T19:15:52.830Z,15.10
2022-08-16T19:18:20.241Z,17.85
2022-08-16T19:20:47.237Z,16.85
2022-08-16T19:23:18.037Z,17.73
2022-08-16T19:25:53.131Z,18.93
2022-08-16T19:28:51.066Z,19.50
2022-08-16T19:31:21.083Z,19.60
2022-08-16T19:33:54.139Z,22.38
2022-08-16T19:36:51.096Z,21.10
2022-08-16T19:39:17.551Z,20.37
2022-08-16T19:41:53.259Z,21.15
2022-08-16T19:44:20.528Z,23.75
2022-08-16T19:46:48.628Z,23.75
2022-08-16T19:49:16.300Z,23.65
2022-08-16T19:51:43.315Z,23.83
2022-08-16T19:54:09.851Z,24.08
2022-08-16T19:56:36.370Z,23.33
2022-08-16T19:59:21.019Z,25.80
2022-08-16T20:01:52.029Z,24.90
2022-08-16T20:04:19.165Z,23.90
2022-08-16T20:06:46.851Z,25.00
2022-08-16T20:09:14.790Z,24.27
2022-08-16T20:11:46.355Z,24.63
2022-08-16T20:14:24.451Z,24.60
2022-08-16T20:16:56.499Z,23.07
2022-08-16T20:19:23.600Z,22.15
2022-08-16T20:21:50.078Z,22.70
2022-08-16T20:24:33.546Z,22.33
2022-08-16T20:27:01.613Z,21.88
2022-08-16T20:29:28.656Z,22.00
2022-08-16T20:31:57.422Z,20.48
2022-08-16T20:34:23.864Z,20.63
2022-08-16T20:36:50.338Z,19.70
2022-08-16T20:39:16.967Z,20.05
2022-08-16T20:41:44.179Z,19.23
2022-08-16T20:44:12.091Z,20.38
2022-08-16T20:46:39.835Z,20.00
2022-08-16T20:49:09.264Z,18.98
2022-08-16T20:51:49.759Z,18.95
2022-08-16T20:54:17.799Z,19.20
2022-08-16T20:56:44.219Z,17.23
2022-08-16T20:59:10.745Z,20.08
2022-08-16T21:01:46.366Z,19.05
2022-08-16T21:04:17.099Z,18.60
2022-08-16T21:06:53.092Z,20.53
2022-08-16T21:09:25.776Z,21.98
2022-08-16T21:11:54.807Z,22.58
2022-08-16T21:14:22.379Z,20.42
2022-08-16T21:16:48.882Z,21.60
2022-08-16T21:19:15.405Z,21.67
2022-08-16T21:21:41.869Z,22.35
2022-08-16T21:24:08.372Z,25.88
2022-08-16T21:26:39.039Z,25.40
2022-08-16T21:29:11.150Z,24.95
2022-08-16T21:31:41.028Z,24.07
2022-08-16T21:34:08.510Z,26.30
2022-08-16T21:36:36.495Z,27.33
2022-08-16T21:39:05.636Z,25.92
2022-08-16T21:41:32.330Z,26.45
2022-08-16T21:43:58.769Z,26.17
2022-08-16T21:46:25.225Z,27.33
2022-08-16T21:48:51.736Z,28.30
2022-08-16T21:51:18.291Z,27.33
2022-08-16T21:53:44.896Z,29.25
2022-08-16T21:56:12.643Z,29.10
2022-08-16T21:58:44.373Z,28.42
2022-08-16T22:01:10.814Z,31.42
2022-08-16T22:03:37.405Z,29.52
2022-08-16T22:06:13.907Z,28.38
2022-08-16T22:08:49.514Z,28.00
2022-08-16T22:11:18.965Z,28.02
2022-08-16T22:13:51.310Z,29.80
2022-08-16T22:16:29.403Z,28.55
2022-08-16T22:18:56.015Z,29.80
2022-08-16T22:21:22.479Z,29.10
2022-08-16T22:23:56.604Z,28.25
2022-08-16T22:26:33.099Z,27.70
2022-08-16T22:29:01.386Z,27.42
2022-08-16T22:31:28.429Z,26.02
2022-08-16T22:33:56.669Z,25.57
2022-08-16T22:36:24.108Z,27.00
2022-08-16T22:39:01.017Z,26.95
2022-08-16T22:41:29.580Z,25.77
2022-08-16T22:43:56.166Z,26.85
2022-08-16T22:46:22.640Z,25.10
2022-08-16T22:48:50.413Z,25.70
2022-08-16T22:51:18.297Z,25.70
2022-08-16T22:53:45.061Z,24.35
2022-08-16T22:56:11.534Z,24.00
2022-08-16T22:58:37.975Z,24.57
2022-08-16T23:01:07.138Z,23.80
2022-08-16T23:03:34.054Z,23.40
2022-08-16T23:06:00.791Z,24.02
2022-08-16T23:08:39.541Z,23.98
2022-08-16T23:11:13.498Z,22.00
2022-08-16T23:13:50.118Z,23.30
2022-08-16T23:16:21.453Z,22.90
2022-08-16T23:18:48.939Z,22.20
2022-08-16T23:21:17.528Z,22.50
2022-08-16T23:23:46.237Z,21.47
2022-08-16T23:26:46.653Z,21.15
2022-08-16T23:29:04.430Z,20.65
2022-08-16T23:31:32.644Z,21.17
2022-08-16T23:33:59.425Z,21.98
2022-08-16T23:36:25.935Z,22.40
2022-08-16T23:38:52.443Z,21.67
2022-08-16T23:41:18.902Z,21.95
2022-08-16T23:43:45.350Z,21.38
2022-08-16T23:46:18.291Z,21.42
2022-08-16T23:50:00.685Z,22.00
2022-08-16T23:51:32.351Z,21.10
2022-08-16T23:53:59.997Z,21.25
2022-08-16T23:56:26.493Z,20.58
2022-08-16T23:59:02.445Z,21.77
